sensor_id;sensor_type;location;lat;lon;timestamp;temperature;humidity
25963;DHT22;13760;52.588;13.406;2023-02-01T00:01:12;3.40;99.90
25963;DHT22;13760;52.588;13.406;2023-02-01T00:03:37;3.30;99.90
25963;DHT22;13760;52.588;13.406;2023-02-01T00:06:03;3.30;99.90
25963;DHT22;13760;52.588;13.406;2023-02-01T00:08:28;3.30;99.90
25963;DHT22;13760;52.588;13.406;2023-02-01T00:11:01;3.30;99.90
25963;DHT22;13760;52.588;13.406;2023-02-01T00:13:33;3.30;99.90
25963;DHT22;13760;52.588;13.406;2023-02-01T00:16:03;3.30;99.90
25963;DHT22;13760;52.588;13.406;2023-02-01T00:18:28;3.30;99.90
25963;DHT22;13760;52.588;13.406;2023-02-01T00:20:54;3.20;99.90
25963;DHT22;13760;52.588;13.406;2023-02-01T00:23:19;3.20;99.90
25963;DHT22;13760;52.588;13.406;2023-02-01T00:25:45;3.20;99.90
25963;DHT22;13760;52.588;13.406;2023-02-01T00:28:10;3.20;99.90
25963;DHT22;13760;52.588;13.406;2023-02-01T00:30:38;3.20;99.90
25963;DHT22;13760;52.588;13.406;2023-02-01T00:33:03;3.20;99.90
25963;DHT22;13760;52.588;13.406;2023-02-01T00:35:29;3.30;99.90
25963;DHT22;13760;52.588;13.406;2023-02-01T00:37:54;3.30;99.90
25963;DHT22;13760;52.588;13.406;2023-02-01T00:40:20;3.30;99.90
25963;DHT22;13760;52.588;13.406;2023-02-01T00:42:45;3.30;99.90
25963;DHT22;13760;52.588;13.406;2023-02-01T00:45:11;3.30;99.90
25963;DHT22;13760;52.588;13.406;2023-02-01T00:47:36;3.30;99.90
25963;DHT22;13760;52.588;13.406;2023-02-01T00:50:02;3.30;99.90
25963;DHT22;13760;52.588;13.406;2023-02-01T00:52:30;3.30;99.90
25963;DHT22;13760;52.588;13.406;2023-02-01T00:54:57;3.30;99.90
25963;DHT22;13760;52.588;13.406;2023-02-01T00:57:22;3.40;99.90
25963;DHT22;13760;52.588;13.406;2023-02-01T00:59:48;3.40;99.90
25963;DHT22;13760;52.588;13.406;2023-02-01T01:02:13;3.40;99.90
25963;DHT22;13760;52.588;13.406;2023-02-01T01:04:39;3.50;99.90
25963;DHT22;13760;52.588;13.406;2023-02-01T01:07:05;3.40;99.90
25963;DHT22;13760;52.588;13.406;2023-02-01T01:09:30;3.40;99.90
25963;DHT22;13760;52.588;13.406;2023-02-01T01:11:56;3.30;99.90
25963;DHT22;13760;52.588;13.406;2023-02-01T01:14:21;3.30;99.90
25963;DHT22;13760;52.588;13.406;2023-02-01T01:16:47;3.30;99.90
25963;DHT22;13760;52.588;13.406;2023-02-01T01:19:12;3.30;99.90
25963;DHT22;13760;52.588;13.406;2023-02-01T01:21:38;3.30;99.90
25963;DHT22;13760;52.588;13.406;2023-02-01T01:24:03;3.40;99.90
25963;DHT22;13760;52.588;13.406;2023-02-01T01:26:29;3.40;99.90
25963;DHT22;13760;52.588;13.406;2023-02-01T01:28:55;3.50;99.90
25963;DHT22;13760;52.588;13.406;2023-02-01T01:31:21;3.40;99.90
25963;DHT22;13760;52.588;13.406;2023-02-01T01:33:47;3.40;99.90
25963;DHT22;13760;52.588;13.406;2023-02-01T01:36:13;3.50;99.90
25963;DHT22;13760;52.588;13.406;2023-02-01T01:38:39;3.40;99.90
25963;DHT22;13760;52.588;13.406;2023-02-01T01:41:05;3.40;99.90
25963;DHT22;13760;52.588;13.406;2023-02-01T01:43:47;3.40;99.90
25963;DHT22;13760;52.588;13.406;2023-02-01T01:46:15;3.30;99.90
25963;DHT22;13760;52.588;13.406;2023-02-01T01:48:41;3.30;99.90
25963;DHT22;13760;52.588;13.406;2023-02-01T01:51:07;3.30;99.90
25963;DHT22;13760;52.588;13.406;2023-02-01T01:53:38;3.30;99.90
25963;DHT22;13760;52.588;13.406;2023-02-01T01:56:05;3.30;99.90
25963;DHT22;13760;52.588;13.406;2023-02-01T01:58:31;3.30;99.90
25963;DHT22;13760;52.588;13.406;2023-02-01T02:00:58;3.30;99.90
25963;DHT22;13760;52.588;13.406;2023-02-01T02:03:25;3.30;99.90
25963;DHT22;13760;52.588;13.406;2023-02-01T02:05:53;3.40;99.90
25963;DHT22;13760;52.588;13.406;2023-02-01T02:08:20;3.40;99.90
25963;DHT22;13760;52.588;13.406;2023-02-01T02:10:50;3.50;99.90
25963;DHT22;13760;52.588;13.406;2023-02-01T02:13:29;3.50;99.90
25963;DHT22;13760;52.588;13.406;2023-02-01T02:16:11;3.50;99.90
25963;DHT22;13760;52.588;13.406;2023-02-01T02:18:49;3.50;99.90
25963;DHT22;13760;52.588;13.406;2023-02-01T02:24:19;3.50;99.90
25963;DHT22;13760;52.588;13.406;2023-02-01T02:31:58;3.40;99.90
25963;DHT22;13760;52.588;13.406;2023-02-01T02:34:52;3.40;99.90
25963;DHT22;13760;52.588;13.406;2023-02-01T02:37:28;3.40;99.90
25963;DHT22;13760;52.588;13.406;2023-02-01T02:39:58;3.40;99.90
25963;DHT22;13760;52.588;13.406;2023-02-01T02:42:30;3.40;99.90
25963;DHT22;13760;52.588;13.406;2023-02-01T02:45:38;3.40;99.90
25963;DHT22;13760;52.588;13.406;2023-02-01T02:50:55;3.40;99.90
25963;DHT22;13760;52.588;13.406;2023-02-01T02:53:46;3.50;99.90
25963;DHT22;13760;52.588;13.406;2023-02-01T02:56:32;3.40;99.90
25963;DHT22;13760;52.588;13.406;2023-02-01T02:59:17;3.40;99.90
25963;DHT22;13760;52.588;13.406;2023-02-01T03:02:03;3.40;99.90
25963;DHT22;13760;52.588;13.406;2023-02-01T03:04:51;3.40;99.90
25963;DHT22;13760;52.588;13.406;2023-02-01T03:10:03;3.50;99.90
25963;DHT22;13760;52.588;13.406;2023-02-01T03:12:31;3.50;99.90
25963;DHT22;13760;52.588;13.406;2023-02-01T03:15:17;3.40;99.90
25963;DHT22;13760;52.588;13.406;2023-02-01T03:17:43;3.40;99.90
25963;DHT22;13760;52.588;13.406;2023-02-01T03:20:09;3.40;99.90
25963;DHT22;13760;52.588;13.406;2023-02-01T03:22:38;3.50;99.90
25963;DHT22;13760;52.588;13.406;2023-02-01T03:25:06;3.50;99.90
25963;DHT22;13760;52.588;13.406;2023-02-01T03:27:35;3.50;99.90
25963;DHT22;13760;52.588;13.406;2023-02-01T03:32:31;3.40;99.90
25963;DHT22;13760;52.588;13.406;2023-02-01T03:35:16;3.40;99.90
25963;DHT22;13760;52.588;13.406;2023-02-01T03:37:43;3.40;99.90
25963;DHT22;13760;52.588;13.406;2023-02-01T03:40:09;3.40;99.90
25963;DHT22;13760;52.588;13.406;2023-02-01T03:42:37;3.40;99.90
25963;DHT22;13760;52.588;13.406;2023-02-01T03:45:09;3.50;99.90
25963;DHT22;13760;52.588;13.406;2023-02-01T03:47:37;3.50;99.90
25963;DHT22;13760;52.588;13.406;2023-02-01T03:50:05;3.50;99.90
25963;DHT22;13760;52.588;13.406;2023-02-01T03:52:39;3.40;99.90
25963;DHT22;13760;52.588;13.406;2023-02-01T03:55:07;3.40;99.90
25963;DHT22;13760;52.588;13.406;2023-02-01T03:57:34;3.40;99.90
25963;DHT22;13760;52.588;13.406;2023-02-01T04:00:07;3.40;99.90
25963;DHT22;13760;52.588;13.406;2023-02-01T04:02:34;3.40;99.90
25963;DHT22;13760;52.588;13.406;2023-02-01T04:04:59;3.40;99.90
25963;DHT22;13760;52.588;13.406;2023-02-01T04:07:25;3.40;99.90
25963;DHT22;13760;52.588;13.406;2023-02-01T04:09:50;3.40;99.90
25963;DHT22;13760;52.588;13.406;2023-02-01T04:12:15;3.50;99.90
25963;DHT22;13760;52.588;13.406;2023-02-01T04:14:41;3.50;99.90
25963;DHT22;13760;52.588;13.406;2023-02-01T04:17:06;3.50;99.90
25963;DHT22;13760;52.588;13.406;2023-02-01T04:19:32;3.50;99.90
25963;DHT22;13760;52.588;13.406;2023-02-01T04:21:57;3.60;99.90
25963;DHT22;13760;52.588;13.406;2023-02-01T04:24:23;3.60;99.90
25963;DHT22;13760;52.588;13.406;2023-02-01T04:26:48;3.60;99.90
25963;DHT22;13760;52.588;13.406;2023-02-01T04:29:14;3.70;99.90
25963;DHT22;13760;52.588;13.406;2023-02-01T04:31:39;3.70;99.90
25963;DHT22;13760;52.588;13.406;2023-02-01T04:34:05;3.70;99.90
25963;DHT22;13760;52.588;13.406;2023-02-01T04:36:30;3.70;99.90
25963;DHT22;13760;52.588;13.406;2023-02-01T04:38:56;3.70;99.90
25963;DHT22;13760;52.588;13.406;2023-02-01T04:41:21;3.80;99.90
25963;DHT22;13760;52.588;13.406;2023-02-01T04:43:48;3.80;99.90
25963;DHT22;13760;52.588;13.406;2023-02-01T04:46:14;3.80;99.90
25963;DHT22;13760;52.588;13.406;2023-02-01T04:48:40;3.80;99.90
25963;DHT22;13760;52.588;13.406;2023-02-01T04:51:05;3.80;99.90
25963;DHT22;13760;52.588;13.406;2023-02-01T04:53:31;3.80;99.90
25963;DHT22;13760;52.588;13.406;2023-02-01T04:55:57;3.90;99.90
25963;DHT22;13760;52.588;13.406;2023-02-01T04:58:22;3.80;99.90
25963;DHT22;13760;52.588;13.406;2023-02-01T05:00:48;3.90;99.90
25963;DHT22;13760;52.588;13.406;2023-02-01T05:03:14;3.90;99.90
25963;DHT22;13760;52.588;13.406;2023-02-01T05:05:40;4.00;99.90
25963;DHT22;13760;52.588;13.406;2023-02-01T05:08:05;4.00;99.90
25963;DHT22;13760;52.588;13.406;2023-02-01T05:10:31;4.00;99.90
25963;DHT22;13760;52.588;13.406;2023-02-01T05:12:56;4.00;99.90
25963;DHT22;13760;52.588;13.406;2023-02-01T05:15:40;4.00;99.90
25963;DHT22;13760;52.588;13.406;2023-02-01T05:18:06;4.00;99.90
25963;DHT22;13760;52.588;13.406;2023-02-01T05:20:32;4.10;99.90
25963;DHT22;13760;52.588;13.406;2023-02-01T05:22:57;4.10;99.90
25963;DHT22;13760;52.588;13.406;2023-02-01T05:25:22;4.10;99.90
25963;DHT22;13760;52.588;13.406;2023-02-01T05:27:48;4.20;99.90
25963;DHT22;13760;52.588;13.406;2023-02-01T05:30:13;4.20;99.90
25963;DHT22;13760;52.588;13.406;2023-02-01T05:32:39;4.20;99.90
25963;DHT22;13760;52.588;13.406;2023-02-01T05:35:04;4.20;99.90
25963;DHT22;13760;52.588;13.406;2023-02-01T05:37:30;4.20;99.90
25963;DHT22;13760;52.588;13.406;2023-02-01T05:39:56;4.10;99.90
25963;DHT22;13760;52.588;13.406;2023-02-01T05:42:21;4.20;99.90
25963;DHT22;13760;52.588;13.406;2023-02-01T05:44:47;4.20;99.90
25963;DHT22;13760;52.588;13.406;2023-02-01T05:47:12;4.30;99.90
25963;DHT22;13760;52.588;13.406;2023-02-01T05:49:38;4.30;99.90
25963;DHT22;13760;52.588;13.406;2023-02-01T05:52:03;4.30;99.90
25963;DHT22;13760;52.588;13.406;2023-02-01T05:54:34;4.40;99.90
25963;DHT22;13760;52.588;13.406;2023-02-01T05:57:12;4.30;99.90
25963;DHT22;13760;52.588;13.406;2023-02-01T05:59:40;4.40;99.90
25963;DHT22;13760;52.588;13.406;2023-02-01T06:02:14;4.30;99.90
25963;DHT22;13760;52.588;13.406;2023-02-01T06:04:40;4.40;99.90
25963;DHT22;13760;52.588;13.406;2023-02-01T06:07:11;4.40;99.90
25963;DHT22;13760;52.588;13.406;2023-02-01T06:09:57;4.40;99.90
25963;DHT22;13760;52.588;13.406;2023-02-01T06:12:22;4.30;99.90
25963;DHT22;13760;52.588;13.406;2023-02-01T06:14:48;4.30;99.90
25963;DHT22;13760;52.588;13.406;2023-02-01T06:17:13;4.30;99.90
25963;DHT22;13760;52.588;13.406;2023-02-01T06:19:38;4.30;99.90
25963;DHT22;13760;52.588;13.406;2023-02-01T06:22:05;4.30;99.90
25963;DHT22;13760;52.588;13.406;2023-02-01T06:24:31;4.30;99.90
25963;DHT22;13760;52.588;13.406;2023-02-01T06:26:56;4.30;99.90
25963;DHT22;13760;52.588;13.406;2023-02-01T06:29:22;4.30;99.90
25963;DHT22;13760;52.588;13.406;2023-02-01T06:31:47;4.20;99.90
25963;DHT22;13760;52.588;13.406;2023-02-01T06:34:13;4.20;99.90
25963;DHT22;13760;52.588;13.406;2023-02-01T06:36:38;4.30;99.90
25963;DHT22;13760;52.588;13.406;2023-02-01T06:39:04;4.20;99.90
25963;DHT22;13760;52.588;13.406;2023-02-01T06:41:30;4.20;99.90
25963;DHT22;13760;52.588;13.406;2023-02-01T06:43:55;4.20;99.90
25963;DHT22;13760;52.588;13.406;2023-02-01T06:46:21;4.10;99.90
25963;DHT22;13760;52.588;13.406;2023-02-01T06:48:46;4.20;99.90
25963;DHT22;13760;52.588;13.406;2023-02-01T06:51:17;4.10;99.90
25963;DHT22;13760;52.588;13.406;2023-02-01T06:53:43;4.10;99.90
25963;DHT22;13760;52.588;13.406;2023-02-01T06:56:09;4.10;99.90
25963;DHT22;13760;52.588;13.406;2023-02-01T06:58:34;4.10;99.90
25963;DHT22;13760;52.588;13.406;2023-02-01T07:01:07;4.10;99.90
25963;DHT22;13760;52.588;13.406;2023-02-01T07:03:32;4.10;99.90
25963;DHT22;13760;52.588;13.406;2023-02-01T07:05:58;4.10;99.90
25963;DHT22;13760;52.588;13.406;2023-02-01T07:08:24;4.10;99.90
25963;DHT22;13760;52.588;13.406;2023-02-01T07:10:50;4.10;99.90
25963;DHT22;13760;52.588;13.406;2023-02-01T07:13:15;4.10;99.90
25963;DHT22;13760;52.588;13.406;2023-02-01T07:15:41;4.20;99.90
25963;DHT22;13760;52.588;13.406;2023-02-01T07:18:06;4.20;99.90
25963;DHT22;13760;52.588;13.406;2023-02-01T07:20:32;4.10;99.90
25963;DHT22;13760;52.588;13.406;2023-02-01T07:22:57;4.10;99.90
25963;DHT22;13760;52.588;13.406;2023-02-01T07:25:23;4.10;99.90
25963;DHT22;13760;52.588;13.406;2023-02-01T07:27:48;4.10;99.90
25963;DHT22;13760;52.588;13.406;2023-02-01T07:30:14;4.10;99.90
25963;DHT22;13760;52.588;13.406;2023-02-01T07:32:39;4.10;99.90
25963;DHT22;13760;52.588;13.406;2023-02-01T07:35:05;4.10;99.90
25963;DHT22;13760;52.588;13.406;2023-02-01T07:37:30;4.10;99.90
25963;DHT22;13760;52.588;13.406;2023-02-01T07:39:56;4.10;99.90
25963;DHT22;13760;52.588;13.406;2023-02-01T07:42:21;4.10;99.90
25963;DHT22;13760;52.588;13.406;2023-02-01T07:44:46;4.20;99.90
25963;DHT22;13760;52.588;13.406;2023-02-01T07:47:12;4.20;99.90
25963;DHT22;13760;52.588;13.406;2023-02-01T07:49:37;4.20;99.90
25963;DHT22;13760;52.588;13.406;2023-02-01T07:52:03;4.20;99.90
25963;DHT22;13760;52.588;13.406;2023-02-01T07:54:28;4.20;99.90
25963;DHT22;13760;52.588;13.406;2023-02-01T07:56:54;4.10;99.90
25963;DHT22;13760;52.588;13.406;2023-02-01T07:59:19;4.10;99.90
25963;DHT22;13760;52.588;13.406;2023-02-01T08:01:45;4.10;99.90
25963;DHT22;13760;52.588;13.406;2023-02-01T08:04:11;4.10;99.90
25963;DHT22;13760;52.588;13.406;2023-02-01T08:06:37;4.00;99.90
25963;DHT22;13760;52.588;13.406;2023-02-01T08:09:03;4.00;99.90
25963;DHT22;13760;52.588;13.406;2023-02-01T08:11:29;3.90;99.90
25963;DHT22;13760;52.588;13.406;2023-02-01T08:13:55;3.90;99.90
25963;DHT22;13760;52.588;13.406;2023-02-01T08:16:20;3.80;99.90
25963;DHT22;13760;52.588;13.406;2023-02-01T08:18:46;3.80;99.90
25963;DHT22;13760;52.588;13.406;2023-02-01T08:21:17;3.70;99.90
25963;DHT22;13760;52.588;13.406;2023-02-01T08:23:43;3.70;99.90
25963;DHT22;13760;52.588;13.406;2023-02-01T08:26:10;3.60;99.90
25963;DHT22;13760;52.588;13.406;2023-02-01T08:28:37;3.60;99.90
25963;DHT22;13760;52.588;13.406;2023-02-01T08:31:07;3.60;99.90
25963;DHT22;13760;52.588;13.406;2023-02-01T08:33:33;3.60;99.90
25963;DHT22;13760;52.588;13.406;2023-02-01T08:36:02;3.60;99.90
25963;DHT22;13760;52.588;13.406;2023-02-01T08:38:28;3.50;99.90
25963;DHT22;13760;52.588;13.406;2023-02-01T08:40:54;3.50;99.90
25963;DHT22;13760;52.588;13.406;2023-02-01T08:43:19;3.50;99.90
25963;DHT22;13760;52.588;13.406;2023-02-01T08:45:44;3.50;99.90
25963;DHT22;13760;52.588;13.406;2023-02-01T08:48:10;3.50;99.90
25963;DHT22;13760;52.588;13.406;2023-02-01T08:50:35;3.50;99.90
25963;DHT22;13760;52.588;13.406;2023-02-01T08:53:01;3.50;99.90
25963;DHT22;13760;52.588;13.406;2023-02-01T08:55:26;3.50;99.90
25963;DHT22;13760;52.588;13.406;2023-02-01T08:57:52;3.50;99.90
25963;DHT22;13760;52.588;13.406;2023-02-01T09:00:18;3.50;99.90
25963;DHT22;13760;52.588;13.406;2023-02-01T09:02:44;3.50;99.90
25963;DHT22;13760;52.588;13.406;2023-02-01T09:05:09;3.50;99.90
25963;DHT22;13760;52.588;13.406;2023-02-01T09:07:36;3.50;99.90
25963;DHT22;13760;52.588;13.406;2023-02-01T09:10:02;3.50;99.90
25963;DHT22;13760;52.588;13.406;2023-02-01T09:12:29;3.50;99.90
25963;DHT22;13760;52.588;13.406;2023-02-01T09:14:57;3.50;99.90
25963;DHT22;13760;52.588;13.406;2023-02-01T09:17:25;3.60;99.90
25963;DHT22;13760;52.588;13.406;2023-02-01T09:19:50;3.60;99.90
25963;DHT22;13760;52.588;13.406;2023-02-01T09:22:16;3.70;99.90
25963;DHT22;13760;52.588;13.406;2023-02-01T09:24:41;3.80;99.90
25963;DHT22;13760;52.588;13.406;2023-02-01T09:27:07;3.80;99.90
25963;DHT22;13760;52.588;13.406;2023-02-01T09:29:32;3.90;99.90
25963;DHT22;13760;52.588;13.406;2023-02-01T09:31:58;3.90;99.90
25963;DHT22;13760;52.588;13.406;2023-02-01T09:34:23;3.90;99.90
25963;DHT22;13760;52.588;13.406;2023-02-01T09:36:49;3.90;99.90
25963;DHT22;13760;52.588;13.406;2023-02-01T09:39:14;3.90;99.90
25963;DHT22;13760;52.588;13.406;2023-02-01T09:41:57;3.90;99.90
25963;DHT22;13760;52.588;13.406;2023-02-01T09:47:11;4.00;99.90
25963;DHT22;13760;52.588;13.406;2023-02-01T09:49:39;3.90;99.90
25963;DHT22;13760;52.588;13.406;2023-02-01T09:52:07;3.90;99.90
25963;DHT22;13760;52.588;13.406;2023-02-01T09:54:42;4.00;99.90
25963;DHT22;13760;52.588;13.406;2023-02-01T09:57:23;4.00;99.90
25963;DHT22;13760;52.588;13.406;2023-02-01T09:59:52;4.00;99.90
25963;DHT22;13760;52.588;13.406;2023-02-01T10:02:23;4.00;99.90
25963;DHT22;13760;52.588;13.406;2023-02-01T10:04:49;4.00;99.90
25963;DHT22;13760;52.588;13.406;2023-02-01T10:10:04;4.00;99.90
25963;DHT22;13760;52.588;13.406;2023-02-01T10:12:44;4.00;99.90
25963;DHT22;13760;52.588;13.406;2023-02-01T10:15:24;4.00;99.90
25963;DHT22;13760;52.588;13.406;2023-02-01T10:17:57;3.90;99.90
25963;DHT22;13760;52.588;13.406;2023-02-01T10:20:36;4.00;99.90
25963;DHT22;13760;52.588;13.406;2023-02-01T10:25:37;3.90;99.90
25963;DHT22;13760;52.588;13.406;2023-02-01T10:28:06;3.90;99.90
25963;DHT22;13760;52.588;13.406;2023-02-01T10:30:41;4.00;99.90
25963;DHT22;13760;52.588;13.406;2023-02-01T10:33:27;4.00;99.90
25963;DHT22;13760;52.588;13.406;2023-02-01T10:35:58;4.10;99.90
25963;DHT22;13760;52.588;13.406;2023-02-01T10:38:27;4.10;99.90
25963;DHT22;13760;52.588;13.406;2023-02-01T10:40:53;4.10;99.90
25963;DHT22;13760;52.588;13.406;2023-02-01T10:43:20;4.30;99.90
25963;DHT22;13760;52.588;13.406;2023-02-01T10:45:46;4.30;99.90
25963;DHT22;13760;52.588;13.406;2023-02-01T10:48:11;4.40;99.90
25963;DHT22;13760;52.588;13.406;2023-02-01T10:50:38;4.40;99.90
25963;DHT22;13760;52.588;13.406;2023-02-01T10:55:40;4.40;99.90
25963;DHT22;13760;52.588;13.406;2023-02-01T10:58:15;4.40;99.90
25963;DHT22;13760;52.588;13.406;2023-02-01T11:01:24;4.30;99.90
25963;DHT22;13760;52.588;13.406;2023-02-01T11:03:32;4.30;99.90
25963;DHT22;13760;52.588;13.406;2023-02-01T11:05:57;4.20;99.90
25963;DHT22;13760;52.588;13.406;2023-02-01T11:08:23;4.20;99.90
25963;DHT22;13760;52.588;13.406;2023-02-01T11:10:56;4.20;99.90
25963;DHT22;13760;52.588;13.406;2023-02-01T11:13:23;4.20;99.90
25963;DHT22;13760;52.588;13.406;2023-02-01T11:15:54;4.30;99.90
25963;DHT22;13760;52.588;13.406;2023-02-01T11:18:20;4.40;99.90
25963;DHT22;13760;52.588;13.406;2023-02-01T11:20:49;4.40;99.90
25963;DHT22;13760;52.588;13.406;2023-02-01T11:23:24;4.50;99.90
25963;DHT22;13760;52.588;13.406;2023-02-01T11:25:59;4.60;99.90
25963;DHT22;13760;52.588;13.406;2023-02-01T11:28:32;4.60;99.90
25963;DHT22;13760;52.588;13.406;2023-02-01T11:31:03;4.70;99.90
25963;DHT22;13760;52.588;13.406;2023-02-01T11:33:30;4.90;99.90
25963;DHT22;13760;52.588;13.406;2023-02-01T11:35:59;5.00;99.90
25963;DHT22;13760;52.588;13.406;2023-02-01T11:40:50;5.10;99.90
25963;DHT22;13760;52.588;13.406;2023-02-01T11:43:26;5.10;99.90
25963;DHT22;13760;52.588;13.406;2023-02-01T11:45:56;5.10;99.90
25963;DHT22;13760;52.588;13.406;2023-02-01T11:48:23;5.10;99.90
25963;DHT22;13760;52.588;13.406;2023-02-01T11:56:23;5.00;99.90
25963;DHT22;13760;52.588;13.406;2023-02-01T12:01:38;5.10;99.90
25963;DHT22;13760;52.588;13.406;2023-02-01T12:04:15;5.10;99.90
25963;DHT22;13760;52.588;13.406;2023-02-01T12:06:54;5.20;99.90
25963;DHT22;13760;52.588;13.406;2023-02-01T12:09:38;5.30;99.90
25963;DHT22;13760;52.588;13.406;2023-02-01T12:12:12;5.50;99.90
25963;DHT22;13760;52.588;13.406;2023-02-01T12:14:48;5.60;99.90
25963;DHT22;13760;52.588;13.406;2023-02-01T12:22:35;5.70;99.90
25963;DHT22;13760;52.588;13.406;2023-02-01T12:25:20;5.70;99.90
25963;DHT22;13760;52.588;13.406;2023-02-01T12:33:18;5.60;99.90
25963;DHT22;13760;52.588;13.406;2023-02-01T12:35:49;5.60;99.90
25963;DHT22;13760;52.588;13.406;2023-02-01T12:38:32;5.50;99.90
25963;DHT22;13760;52.588;13.406;2023-02-01T12:41:05;5.50;99.90
25963;DHT22;13760;52.588;13.406;2023-02-01T12:43:43;5.50;99.90
25963;DHT22;13760;52.588;13.406;2023-02-01T12:46:17;5.40;99.90
25963;DHT22;13760;52.588;13.406;2023-02-01T12:48:52;5.40;99.90
25963;DHT22;13760;52.588;13.406;2023-02-01T12:51:20;5.30;99.90
25963;DHT22;13760;52.588;13.406;2023-02-01T12:53:51;5.20;99.90
25963;DHT22;13760;52.588;13.406;2023-02-01T12:56:21;5.20;99.90
25963;DHT22;13760;52.588;13.406;2023-02-01T12:58:52;5.20;99.90
25963;DHT22;13760;52.588;13.406;2023-02-01T13:01:21;5.10;99.90
25963;DHT22;13760;52.588;13.406;2023-02-01T13:06:26;5.20;99.90
25963;DHT22;13760;52.588;13.406;2023-02-01T13:09:04;5.10;99.90
25963;DHT22;13760;52.588;13.406;2023-02-01T13:11:35;4.80;99.90
25963;DHT22;13760;52.588;13.406;2023-02-01T13:16:33;4.00;99.90
25963;DHT22;13760;52.588;13.406;2023-02-01T13:19:23;3.70;99.90
25963;DHT22;13760;52.588;13.406;2023-02-01T13:22:02;3.40;99.90
25963;DHT22;13760;52.588;13.406;2023-02-01T13:24:37;3.30;99.90
25963;DHT22;13760;52.588;13.406;2023-02-01T13:27:26;3.20;99.90
25963;DHT22;13760;52.588;13.406;2023-02-01T13:30:42;3.10;99.90
25963;DHT22;13760;52.588;13.406;2023-02-01T13:32:55;3.10;99.90
25963;DHT22;13760;52.588;13.406;2023-02-01T13:40:31;2.90;99.90
25963;DHT22;13760;52.588;13.406;2023-02-01T13:43:01;2.90;99.90
25963;DHT22;13760;52.588;13.406;2023-02-01T13:45:29;2.90;99.90
25963;DHT22;13760;52.588;13.406;2023-02-01T13:47:56;3.00;99.90
25963;DHT22;13760;52.588;13.406;2023-02-01T13:53:31;3.10;99.90
25963;DHT22;13760;52.588;13.406;2023-02-01T13:55:46;3.20;99.90
25963;DHT22;13760;52.588;13.406;2023-02-01T13:58:22;3.40;99.90
25963;DHT22;13760;52.588;13.406;2023-02-01T14:01:30;3.40;99.90
25963;DHT22;13760;52.588;13.406;2023-02-01T14:03:46;3.60;99.90
25963;DHT22;13760;52.588;13.406;2023-02-01T14:08:44;3.80;99.90
25963;DHT22;13760;52.588;13.406;2023-02-01T14:13:54;3.90;99.90
25963;DHT22;13760;52.588;13.406;2023-02-01T14:16:19;4.00;99.90
25963;DHT22;13760;52.588;13.406;2023-02-01T14:21:31;4.20;99.90
25963;DHT22;13760;52.588;13.406;2023-02-01T14:29:19;4.00;99.90
25963;DHT22;13760;52.588;13.406;2023-02-01T14:32:05;4.00;99.90
25963;DHT22;13760;52.588;13.406;2023-02-01T14:34:35;3.90;99.90
25963;DHT22;13760;52.588;13.406;2023-02-01T14:37:09;4.00;99.90
25963;DHT22;13760;52.588;13.406;2023-02-01T14:42:46;4.00;99.90
25963;DHT22;13760;52.588;13.406;2023-02-01T14:47:45;4.10;99.90
25963;DHT22;13760;52.588;13.406;2023-02-01T14:50:13;4.10;99.90
25963;DHT22;13760;52.588;13.406;2023-02-01T14:55:31;4.10;99.90
25963;DHT22;13760;52.588;13.406;2023-02-01T14:58:05;4.10;99.90
25963;DHT22;13760;52.588;13.406;2023-02-01T15:00:31;4.10;99.90
25963;DHT22;13760;52.588;13.406;2023-02-01T15:03:15;4.20;99.90
25963;DHT22;13760;52.588;13.406;2023-02-01T15:05:42;4.20;99.90
25963;DHT22;13760;52.588;13.406;2023-02-01T15:10:44;4.30;99.90
25963;DHT22;13760;52.588;13.406;2023-02-01T15:13:24;4.40;99.90
25963;DHT22;13760;52.588;13.406;2023-02-01T15:16:03;4.40;99.90
25963;DHT22;13760;52.588;13.406;2023-02-01T15:18:29;4.50;99.90
25963;DHT22;13760;52.588;13.406;2023-02-01T15:21:05;4.50;99.90
25963;DHT22;13760;52.588;13.406;2023-02-01T15:23:31;4.40;99.90
25963;DHT22;13760;52.588;13.406;2023-02-01T15:26:00;4.30;99.90
25963;DHT22;13760;52.588;13.406;2023-02-01T15:28:33;4.20;99.90
25963;DHT22;13760;52.588;13.406;2023-02-01T15:31:06;4.20;99.90
25963;DHT22;13760;52.588;13.406;2023-02-01T15:33:32;4.20;99.90
25963;DHT22;13760;52.588;13.406;2023-02-01T15:36:16;4.10;99.90
25963;DHT22;13760;52.588;13.406;2023-02-01T15:39:16;4.10;99.90
25963;DHT22;13760;52.588;13.406;2023-02-01T15:44:46;4.00;99.90
25963;DHT22;13760;52.588;13.406;2023-02-01T15:47:32;3.90;99.90
25963;DHT22;13760;52.588;13.406;2023-02-01T15:49:58;3.90;99.90
25963;DHT22;13760;52.588;13.406;2023-02-01T15:54:54;3.80;99.90
25963;DHT22;13760;52.588;13.406;2023-02-01T15:57:24;3.70;99.90
25963;DHT22;13760;52.588;13.406;2023-02-01T15:59:55;3.60;99.90
25963;DHT22;13760;52.588;13.406;2023-02-01T16:02:26;3.50;99.90
25963;DHT22;13760;52.588;13.406;2023-02-01T16:04:52;3.40;99.90
25963;DHT22;13760;52.588;13.406;2023-02-01T16:07:29;3.30;99.90
25963;DHT22;13760;52.588;13.406;2023-02-01T16:09:56;3.10;99.90
25963;DHT22;13760;52.588;13.406;2023-02-01T16:14:54;2.90;99.90
25963;DHT22;13760;52.588;13.406;2023-02-01T16:17:19;2.80;99.90
25963;DHT22;13760;52.588;13.406;2023-02-01T16:19:45;2.80;99.90
25963;DHT22;13760;52.588;13.406;2023-02-01T16:22:10;2.80;99.90
25963;DHT22;13760;52.588;13.406;2023-02-01T16:24:36;2.80;99.90
25963;DHT22;13760;52.588;13.406;2023-02-01T16:27:01;2.80;99.90
25963;DHT22;13760;52.588;13.406;2023-02-01T16:29:28;2.80;99.90
25963;DHT22;13760;52.588;13.406;2023-02-01T16:31:53;2.80;99.90
25963;DHT22;13760;52.588;13.406;2023-02-01T16:34:21;2.80;99.90
25963;DHT22;13760;52.588;13.406;2023-02-01T16:36:47;2.80;99.90
25963;DHT22;13760;52.588;13.406;2023-02-01T16:39:18;2.70;99.90
25963;DHT22;13760;52.588;13.406;2023-02-01T16:41:43;2.70;99.90
25963;DHT22;13760;52.588;13.406;2023-02-01T16:44:10;2.70;99.90
25963;DHT22;13760;52.588;13.406;2023-02-01T16:46:38;2.70;99.90
25963;DHT22;13760;52.588;13.406;2023-02-01T16:49:04;2.70;99.90
25963;DHT22;13760;52.588;13.406;2023-02-01T16:51:31;2.70;99.90
25963;DHT22;13760;52.588;13.406;2023-02-01T16:53:58;2.70;99.90
25963;DHT22;13760;52.588;13.406;2023-02-01T16:56:31;2.70;99.90
25963;DHT22;13760;52.588;13.406;2023-02-01T16:58:57;2.70;99.90
25963;DHT22;13760;52.588;13.406;2023-02-01T17:01:23;2.70;99.90
25963;DHT22;13760;52.588;13.406;2023-02-01T17:03:49;2.70;99.90
25963;DHT22;13760;52.588;13.406;2023-02-01T17:06:16;2.70;99.90
25963;DHT22;13760;52.588;13.406;2023-02-01T17:08:43;2.70;99.90
25963;DHT22;13760;52.588;13.406;2023-02-01T17:11:09;2.70;99.90
25963;DHT22;13760;52.588;13.406;2023-02-01T17:13:35;2.70;99.90
25963;DHT22;13760;52.588;13.406;2023-02-01T17:16:05;2.70;99.90